sensor_id;sensor_type;location;lat;lon;timestamp;P1;durP1;ratioP1;P2;durP2;ratioP2
38865;SDS011;62686;48.984;8.394;2023-09-07T00:01:07;6.95;;;5.93;;
38865;SDS011;62686;48.984;8.394;2023-09-07T00:03:35;6.78;;;5.80;;
38865;SDS011;62686;48.984;8.394;2023-09-07T00:06:08;9.25;;;6.13;;
38865;SDS011;62686;48.984;8.394;2023-09-07T00:08:37;9.27;;;6.80;;
38865;SDS011;62686;48.984;8.394;2023-09-07T00:11:06;7.38;;;6.57;;
38865;SDS011;62686;48.984;8.394;2023-09-07T00:13:35;6.28;;;5.57;;
38865;SDS011;62686;48.984;8.394;2023-09-07T00:16:04;8.18;;;5.80;;
38865;SDS011;62686;48.984;8.394;2023-09-07T00:18:33;6.78;;;6.13;;
38865;SDS011;62686;48.984;8.394;2023-09-07T00:21:02;5.97;;;5.25;;
38865;SDS011;62686;48.984;8.394;2023-09-07T00:23:32;7.13;;;5.80;;
38865;SDS011;62686;48.984;8.394;2023-09-07T00:26:00;14.75;;;5.90;;
38865;SDS011;62686;48.984;8.394;2023-09-07T00:28:28;8.20;;;5.70;;
38865;SDS011;62686;48.984;8.394;2023-09-07T00:30:57;7.82;;;5.63;;
38865;SDS011;62686;48.984;8.394;2023-09-07T00:33:25;6.80;;;5.78;;
38865;SDS011;62686;48.984;8.394;2023-09-07T00:35:53;9.55;;;6.13;;
38865;SDS011;62686;48.984;8.394;2023-09-07T00:38:21;7.68;;;5.57;;
38865;SDS011;62686;48.984;8.394;2023-09-07T00:40:51;7.15;;;5.22;;
38865;SDS011;62686;48.984;8.394;2023-09-07T00:43:19;7.88;;;5.60;;
38865;SDS011;62686;48.984;8.394;2023-09-07T00:45:47;8.88;;;5.88;;
38865;SDS011;62686;48.984;8.394;2023-09-07T00:48:17;9.80;;;5.80;;
38865;SDS011;62686;48.984;8.394;2023-09-07T00:50:45;8.55;;;5.88;;
38865;SDS011;62686;48.984;8.394;2023-09-07T00:53:13;7.60;;;5.70;;
38865;SDS011;62686;48.984;8.394;2023-09-07T00:55:44;8.60;;;5.68;;
38865;SDS011;62686;48.984;8.394;2023-09-07T00:58:14;8.50;;;6.07;;
38865;SDS011;62686;48.984;8.394;2023-09-07T01:00:42;8.50;;;6.32;;
38865;SDS011;62686;48.984;8.394;2023-09-07T01:03:11;8.00;;;6.18;;
38865;SDS011;62686;48.984;8.394;2023-09-07T01:05:41;12.55;;;6.13;;
38865;SDS011;62686;48.984;8.394;2023-09-07T01:08:15;7.32;;;6.00;;
38865;SDS011;62686;48.984;8.394;2023-09-07T01:10:49;8.48;;;6.43;;
38865;SDS011;62686;48.984;8.394;2023-09-07T01:13:19;7.05;;;6.15;;
38865;SDS011;62686;48.984;8.394;2023-09-07T01:15:48;6.95;;;6.18;;
38865;SDS011;62686;48.984;8.394;2023-09-07T01:18:16;8.88;;;5.97;;
38865;SDS011;62686;48.984;8.394;2023-09-07T01:20:49;7.57;;;6.00;;
38865;SDS011;62686;48.984;8.394;2023-09-07T01:23:20;6.65;;;5.80;;
38865;SDS011;62686;48.984;8.394;2023-09-07T01:25:48;6.78;;;5.80;;
38865;SDS011;62686;48.984;8.394;2023-09-07T01:28:17;9.02;;;6.20;;
38865;SDS011;62686;48.984;8.394;2023-09-07T01:30:47;6.45;;;5.65;;
38865;SDS011;62686;48.984;8.394;2023-09-07T01:33:16;5.88;;;5.38;;
38865;SDS011;62686;48.984;8.394;2023-09-07T01:35:44;7.13;;;5.53;;
38865;SDS011;62686;48.984;8.394;2023-09-07T01:38:13;6.90;;;5.90;;
38865;SDS011;62686;48.984;8.394;2023-09-07T01:40:43;6.03;;;5.30;;
38865;SDS011;62686;48.984;8.394;2023-09-07T01:43:11;8.82;;;5.75;;
38865;SDS011;62686;48.984;8.394;2023-09-07T01:45:39;7.70;;;5.80;;
38865;SDS011;62686;48.984;8.394;2023-09-07T01:48:08;7.43;;;5.50;;
38865;SDS011;62686;48.984;8.394;2023-09-07T01:50:37;6.13;;;5.30;;
38865;SDS011;62686;48.984;8.394;2023-09-07T01:53:05;6.55;;;5.00;;
38865;SDS011;62686;48.984;8.394;2023-09-07T01:55:33;6.45;;;5.40;;
38865;SDS011;62686;48.984;8.394;2023-09-07T01:58:03;7.90;;;5.28;;
38865;SDS011;62686;48.984;8.394;2023-09-07T02:00:35;6.00;;;5.40;;
38865;SDS011;62686;48.984;8.394;2023-09-07T02:03:04;6.50;;;5.25;;
38865;SDS011;62686;48.984;8.394;2023-09-07T02:05:32;7.50;;;5.20;;
38865;SDS011;62686;48.984;8.394;2023-09-07T02:08:01;6.25;;;5.15;;
38865;SDS011;62686;48.984;8.394;2023-09-07T02:10:30;8.80;;;5.47;;
38865;SDS011;62686;48.984;8.394;2023-09-07T02:12:58;6.40;;;5.38;;
38865;SDS011;62686;48.984;8.394;2023-09-07T02:15:30;6.57;;;5.78;;
38865;SDS011;62686;48.984;8.394;2023-09-07T02:17:59;7.32;;;5.13;;
38865;SDS011;62686;48.984;8.394;2023-09-07T02:20:30;6.30;;;5.43;;
38865;SDS011;62686;48.984;8.394;2023-09-07T02:22:58;12.02;;;5.53;;
38865;SDS011;62686;48.984;8.394;2023-09-07T02:25:26;5.82;;;4.85;;
38865;SDS011;62686;48.984;8.394;2023-09-07T02:27:56;6.35;;;5.30;;
38865;SDS011;62686;48.984;8.394;2023-09-07T02:30:24;7.22;;;5.32;;
38865;SDS011;62686;48.984;8.394;2023-09-07T02:32:54;5.82;;;5.22;;
38865;SDS011;62686;48.984;8.394;2023-09-07T02:35:22;6.85;;;4.75;;
38865;SDS011;62686;48.984;8.394;2023-09-07T02:37:50;5.60;;;5.00;;
38865;SDS011;62686;48.984;8.394;2023-09-07T02:40:18;7.85;;;4.72;;
38865;SDS011;62686;48.984;8.394;2023-09-07T02:42:47;5.57;;;4.78;;
38865;SDS011;62686;48.984;8.394;2023-09-07T02:45:15;7.75;;;4.93;;
38865;SDS011;62686;48.984;8.394;2023-09-07T02:47:43;5.60;;;4.97;;
38865;SDS011;62686;48.984;8.394;2023-09-07T02:50:14;6.35;;;4.70;;
38865;SDS011;62686;48.984;8.394;2023-09-07T02:52:44;9.25;;;5.13;;
38865;SDS011;62686;48.984;8.394;2023-09-07T02:55:12;6.90;;;4.57;;
38865;SDS011;62686;48.984;8.394;2023-09-07T02:57:40;19.50;;;6.05;;
38865;SDS011;62686;48.984;8.394;2023-09-07T03:00:08;17.63;;;5.45;;
38865;SDS011;62686;48.984;8.394;2023-09-07T03:02:38;8.55;;;6.05;;
38865;SDS011;62686;48.984;8.394;2023-09-07T03:05:06;10.23;;;5.38;;
38865;SDS011;62686;48.984;8.394;2023-09-07T03:07:36;7.25;;;5.28;;
38865;SDS011;62686;48.984;8.394;2023-09-07T03:10:05;6.75;;;5.13;;
38865;SDS011;62686;48.984;8.394;2023-09-07T03:12:34;5.60;;;5.10;;
38865;SDS011;62686;48.984;8.394;2023-09-07T03:15:02;10.00;;;5.40;;
38865;SDS011;62686;48.984;8.394;2023-09-07T03:17:31;6.72;;;5.20;;
38865;SDS011;62686;48.984;8.394;2023-09-07T03:20:00;11.25;;;5.20;;
38865;SDS011;62686;48.984;8.394;2023-09-07T03:22:31;5.47;;;4.63;;
38865;SDS011;62686;48.984;8.394;2023-09-07T03:25:01;4.13;;;3.72;;
38865;SDS011;62686;48.984;8.394;2023-09-07T03:27:29;7.45;;;4.07;;
38865;SDS011;62686;48.984;8.394;2023-09-07T03:30:00;4.45;;;3.35;;
38865;SDS011;62686;48.984;8.394;2023-09-07T03:32:30;4.13;;;3.25;;
38865;SDS011;62686;48.984;8.394;2023-09-07T03:34:59;3.50;;;2.92;;
38865;SDS011;62686;48.984;8.394;2023-09-07T03:37:28;4.22;;;3.33;;
38865;SDS011;62686;48.984;8.394;2023-09-07T03:39:56;4.13;;;2.90;;
38865;SDS011;62686;48.984;8.394;2023-09-07T03:42:26;2.92;;;2.40;;
38865;SDS011;62686;48.984;8.394;2023-09-07T03:44:54;3.30;;;2.50;;
38865;SDS011;62686;48.984;8.394;2023-09-07T03:47:22;3.40;;;2.47;;
38865;SDS011;62686;48.984;8.394;2023-09-07T03:49:55;3.25;;;2.53;;
38865;SDS011;62686;48.984;8.394;2023-09-07T03:52:23;3.10;;;2.47;;
38865;SDS011;62686;48.984;8.394;2023-09-07T03:54:53;2.83;;;2.15;;
38865;SDS011;62686;48.984;8.394;2023-09-07T03:57:22;3.90;;;2.38;;
38865;SDS011;62686;48.984;8.394;2023-09-07T03:59:52;2.63;;;2.40;;
38865;SDS011;62686;48.984;8.394;2023-09-07T04:02:21;2.47;;;2.28;;
38865;SDS011;62686;48.984;8.394;2023-09-07T04:04:50;3.05;;;2.28;;
38865;SDS011;62686;48.984;8.394;2023-09-07T04:07:19;3.33;;;2.17;;
38865;SDS011;62686;48.984;8.394;2023-09-07T04:09:47;2.50;;;2.05;;
38865;SDS011;62686;48.984;8.394;2023-09-07T04:12:15;3.13;;;2.60;;
38865;SDS011;62686;48.984;8.394;2023-09-07T04:14:43;2.50;;;2.20;;
38865;SDS011;62686;48.984;8.394;2023-09-07T04:17:13;2.63;;;2.40;;
38865;SDS011;62686;48.984;8.394;2023-09-07T04:19:41;3.03;;;2.55;;
38865;SDS011;62686;48.984;8.394;2023-09-07T04:22:10;2.53;;;2.33;;
38865;SDS011;62686;48.984;8.394;2023-09-07T04:24:38;3.08;;;2.67;;
38865;SDS011;62686;48.984;8.394;2023-09-07T04:27:06;2.80;;;2.40;;
38865;SDS011;62686;48.984;8.394;2023-09-07T04:29:35;2.92;;;2.30;;
38865;SDS011;62686;48.984;8.394;2023-09-07T04:32:03;2.95;;;2.45;;
38865;SDS011;62686;48.984;8.394;2023-09-07T04:34:33;2.22;;;2.03;;
38865;SDS011;62686;48.984;8.394;2023-09-07T04:37:01;3.05;;;2.25;;
38865;SDS011;62686;48.984;8.394;2023-09-07T04:39:29;2.42;;;2.22;;
38865;SDS011;62686;48.984;8.394;2023-09-07T04:41:57;7.35;;;2.47;;
38865;SDS011;62686;48.984;8.394;2023-09-07T04:44:25;2.35;;;2.15;;
38865;SDS011;62686;48.984;8.394;2023-09-07T04:46:54;2.38;;;2.17;;
38865;SDS011;62686;48.984;8.394;2023-09-07T04:49:23;3.17;;;2.67;;
38865;SDS011;62686;48.984;8.394;2023-09-07T04:51:53;2.95;;;2.42;;
38865;SDS011;62686;48.984;8.394;2023-09-07T04:54:21;3.05;;;2.53;;
38865;SDS011;62686;48.984;8.394;2023-09-07T04:56:50;2.65;;;2.20;;
38865;SDS011;62686;48.984;8.394;2023-09-07T04:59:18;2.53;;;2.33;;
38865;SDS011;62686;48.984;8.394;2023-09-07T05:01:46;3.38;;;2.72;;
38865;SDS011;62686;48.984;8.394;2023-09-07T05:04:14;2.53;;;2.33;;
38865;SDS011;62686;48.984;8.394;2023-09-07T05:06:45;3.45;;;2.40;;
38865;SDS011;62686;48.984;8.394;2023-09-07T05:09:15;2.35;;;2.15;;
38865;SDS011;62686;48.984;8.394;2023-09-07T05:11:43;2.83;;;2.47;;
38865;SDS011;62686;48.984;8.394;2023-09-07T05:14:11;2.53;;;2.25;;
38865;SDS011;62686;48.984;8.394;2023-09-07T05:16:42;2.10;;;1.90;;
38865;SDS011;62686;48.984;8.394;2023-09-07T05:19:10;2.80;;;2.30;;
38865;SDS011;62686;48.984;8.394;2023-09-07T05:21:38;2.80;;;2.25;;
38865;SDS011;62686;48.984;8.394;2023-09-07T05:24:06;3.33;;;2.67;;
38865;SDS011;62686;48.984;8.394;2023-09-07T05:26:36;2.88;;;2.13;;
38865;SDS011;62686;48.984;8.394;2023-09-07T05:29:04;3.42;;;2.10;;
38865;SDS011;62686;48.984;8.394;2023-09-07T05:31:32;2.30;;;1.90;;
38865;SDS011;62686;48.984;8.394;2023-09-07T05:34:00;2.70;;;2.15;;
38865;SDS011;62686;48.984;8.394;2023-09-07T05:36:29;2.88;;;2.15;;
38865;SDS011;62686;48.984;8.394;2023-09-07T05:38:57;2.10;;;1.85;;
38865;SDS011;62686;48.984;8.394;2023-09-07T05:41:25;2.90;;;2.40;;
38865;SDS011;62686;48.984;8.394;2023-09-07T05:43:55;2.20;;;2.00;;
38865;SDS011;62686;48.984;8.394;2023-09-07T05:46:23;2.90;;;2.20;;
38865;SDS011;62686;48.984;8.394;2023-09-07T05:48:51;2.63;;;1.88;;
38865;SDS011;62686;48.984;8.394;2023-09-07T05:51:19;3.97;;;1.92;;
38865;SDS011;62686;48.984;8.394;2023-09-07T05:53:48;2.90;;;2.10;;
38865;SDS011;62686;48.984;8.394;2023-09-07T05:56:16;2.13;;;1.75;;
38865;SDS011;62686;48.984;8.394;2023-09-07T05:58:44;2.00;;;1.63;;
38865;SDS011;62686;48.984;8.394;2023-09-07T06:01:14;1.90;;;1.60;;
38865;SDS011;62686;48.984;8.394;2023-09-07T06:03:42;2.10;;;1.85;;
38865;SDS011;62686;48.984;8.394;2023-09-07T06:06:10;4.70;;;1.73;;
38865;SDS011;62686;48.984;8.394;2023-09-07T06:08:38;1.73;;;1.60;;
38865;SDS011;62686;48.984;8.394;2023-09-07T06:11:06;2.67;;;1.80;;
38865;SDS011;62686;48.984;8.394;2023-09-07T06:13:35;2.17;;;1.92;;
38865;SDS011;62686;48.984;8.394;2023-09-07T06:16:03;1.98;;;1.50;;
38865;SDS011;62686;48.984;8.394;2023-09-07T06:18:33;2.30;;;1.92;;
38865;SDS011;62686;48.984;8.394;2023-09-07T06:21:01;2.17;;;1.73;;
38865;SDS011;62686;48.984;8.394;2023-09-07T06:23:30;1.63;;;1.52;;
38865;SDS011;62686;48.984;8.394;2023-09-07T06:25:59;1.70;;;1.55;;
38865;SDS011;62686;48.984;8.394;2023-09-07T06:28:27;2.08;;;1.83;;
38865;SDS011;62686;48.984;8.394;2023-09-07T06:30:55;2.30;;;1.65;;
38865;SDS011;62686;48.984;8.394;2023-09-07T06:33:24;2.70;;;1.70;;
38865;SDS011;62686;48.984;8.394;2023-09-07T06:35:53;1.98;;;1.55;;
38865;SDS011;62686;48.984;8.394;2023-09-07T06:38:23;2.03;;;1.65;;
38865;SDS011;62686;48.984;8.394;2023-09-07T06:40:51;1.92;;;1.73;;
38865;SDS011;62686;48.984;8.394;2023-09-07T06:43:19;2.70;;;1.70;;
38865;SDS011;62686;48.984;8.394;2023-09-07T06:45:49;1.60;;;1.38;;
38865;SDS011;62686;48.984;8.394;2023-09-07T06:48:17;1.80;;;1.50;;
38865;SDS011;62686;48.984;8.394;2023-09-07T06:50:45;1.30;;;1.20;;
38865;SDS011;62686;48.984;8.394;2023-09-07T06:53:16;1.80;;;1.60;;
38865;SDS011;62686;48.984;8.394;2023-09-07T06:55:44;1.60;;;1.17;;
38865;SDS011;62686;48.984;8.394;2023-09-07T06:58:13;1.70;;;1.60;;
38865;SDS011;62686;48.984;8.394;2023-09-07T07:00:41;1.83;;;1.55;;
38865;SDS011;62686;48.984;8.394;2023-09-07T07:03:11;1.75;;;1.35;;
38865;SDS011;62686;48.984;8.394;2023-09-07T07:05:39;2.05;;;1.48;;
38865;SDS011;62686;48.984;8.394;2023-09-07T07:08:09;2.33;;;1.60;;
38865;SDS011;62686;48.984;8.394;2023-09-07T07:10:38;3.10;;;1.23;;
38865;SDS011;62686;48.984;8.394;2023-09-07T07:13:07;1.52;;;1.42;;
38865;SDS011;62686;48.984;8.394;2023-09-07T07:15:35;1.52;;;1.30;;
38865;SDS011;62686;48.984;8.394;2023-09-07T07:18:03;1.52;;;1.40;;
38865;SDS011;62686;48.984;8.394;2023-09-07T07:20:34;1.60;;;1.42;;
38865;SDS011;62686;48.984;8.394;2023-09-07T07:23:04;1.50;;;1.40;;
38865;SDS011;62686;48.984;8.394;2023-09-07T07:25:33;1.50;;;1.40;;
38865;SDS011;62686;48.984;8.394;2023-09-07T07:36:05;2.35;;;1.45;;
38865;SDS011;62686;48.984;8.394;2023-09-07T07:38:35;2.03;;;1.60;;
38865;SDS011;62686;48.984;8.394;2023-09-07T07:41:04;1.98;;;1.73;;
38865;SDS011;62686;48.984;8.394;2023-09-07T07:43:32;1.40;;;1.30;;
38865;SDS011;62686;48.984;8.394;2023-09-07T07:46:01;1.70;;;1.45;;
38865;SDS011;62686;48.984;8.394;2023-09-07T07:48:29;1.55;;;1.42;;
38865;SDS011;62686;48.984;8.394;2023-09-07T07:51:01;1.90;;;1.63;;
38865;SDS011;62686;48.984;8.394;2023-09-07T07:53:32;1.92;;;1.40;;
38865;SDS011;62686;48.984;8.394;2023-09-07T07:56:01;1.60;;;1.38;;
38865;SDS011;62686;48.984;8.394;2023-09-07T07:58:30;1.33;;;1.23;;
38865;SDS011;62686;48.984;8.394;2023-09-07T08:00:58;1.30;;;1.20;;
38865;SDS011;62686;48.984;8.394;2023-09-07T08:03:27;1.75;;;1.23;;
38865;SDS011;62686;48.984;8.394;2023-09-07T08:05:56;1.58;;;1.35;;
38865;SDS011;62686;48.984;8.394;2023-09-07T08:08:24;1.42;;;1.30;;
38865;SDS011;62686;48.984;8.394;2023-09-07T08:10:53;1.58;;;1.48;;
38865;SDS011;62686;48.984;8.394;2023-09-07T08:13:23;1.30;;;1.20;;
38865;SDS011;62686;48.984;8.394;2023-09-07T08:15:51;1.55;;;1.30;;
38865;SDS011;62686;48.984;8.394;2023-09-07T08:18:19;1.55;;;1.45;;
38865;SDS011;62686;48.984;8.394;2023-09-07T08:20:50;1.48;;;1.27;;
38865;SDS011;62686;48.984;8.394;2023-09-07T08:23:19;1.70;;;1.60;;
38865;SDS011;62686;48.984;8.394;2023-09-07T08:25:48;1.60;;;1.50;;
38865;SDS011;62686;48.984;8.394;2023-09-07T08:28:20;1.40;;;1.30;;
38865;SDS011;62686;48.984;8.394;2023-09-07T08:30:49;3.00;;;1.88;;
38865;SDS011;62686;48.984;8.394;2023-09-07T08:33:19;1.35;;;1.20;;
38865;SDS011;62686;48.984;8.394;2023-09-07T08:35:55;1.50;;;1.33;;
38865;SDS011;62686;48.984;8.394;2023-09-07T08:38:27;1.45;;;1.35;;
38865;SDS011;62686;48.984;8.394;2023-09-07T08:41:00;1.25;;;1.13;;
38865;SDS011;62686;48.984;8.394;2023-09-07T08:43:34;2.47;;;1.50;;
38865;SDS011;62686;48.984;8.394;2023-09-07T08:46:13;1.73;;;1.60;;
38865;SDS011;62686;48.984;8.394;2023-09-07T08:48:46;1.35;;;1.25;;
38865;SDS011;62686;48.984;8.394;2023-09-07T08:51:16;1.63;;;1.52;;
38865;SDS011;62686;48.984;8.394;2023-09-07T08:53:46;1.50;;;1.40;;
38865;SDS011;62686;48.984;8.394;2023-09-07T08:56:15;1.70;;;1.60;;
38865;SDS011;62686;48.984;8.394;2023-09-07T08:58:47;1.70;;;1.52;;
38865;SDS011;62686;48.984;8.394;2023-09-07T09:01:15;2.10;;;1.48;;
38865;SDS011;62686;48.984;8.394;2023-09-07T09:03:44;1.75;;;1.63;;
38865;SDS011;62686;48.984;8.394;2023-09-07T09:06:13;1.70;;;1.50;;
38865;SDS011;62686;48.984;8.394;2023-09-07T09:08:45;2.17;;;1.45;;
38865;SDS011;62686;48.984;8.394;2023-09-07T09:11:15;1.92;;;1.60;;
38865;SDS011;62686;48.984;8.394;2023-09-07T09:13:44;1.40;;;1.30;;
38865;SDS011;62686;48.984;8.394;2023-09-07T09:16:15;2.20;;;1.70;;
38865;SDS011;62686;48.984;8.394;2023-09-07T09:18:49;1.75;;;1.40;;
38865;SDS011;62686;48.984;8.394;2023-09-07T09:21:19;3.08;;;1.40;;
38865;SDS011;62686;48.984;8.394;2023-09-07T09:23:48;1.50;;;1.40;;
38865;SDS011;62686;48.984;8.394;2023-09-07T09:26:17;1.45;;;1.35;;
38865;SDS011;62686;48.984;8.394;2023-09-07T09:28:47;1.23;;;1.13;;
38865;SDS011;62686;48.984;8.394;2023-09-07T09:31:17;1.55;;;1.45;;
38865;SDS011;62686;48.984;8.394;2023-09-07T09:33:48;1.80;;;1.55;;
38865;SDS011;62686;48.984;8.394;2023-09-07T09:36:18;1.67;;;1.50;;
38865;SDS011;62686;48.984;8.394;2023-09-07T09:38:47;2.17;;;1.67;;
38865;SDS011;62686;48.984;8.394;2023-09-07T09:41:19;1.67;;;1.52;;
38865;SDS011;62686;48.984;8.394;2023-09-07T09:43:49;1.55;;;1.45;;
38865;SDS011;62686;48.984;8.394;2023-09-07T09:46:18;2.00;;;1.70;;
38865;SDS011;62686;48.984;8.394;2023-09-07T09:48:47;3.08;;;1.70;;
38865;SDS011;62686;48.984;8.394;2023-09-07T09:51:15;2.67;;;1.98;;
38865;SDS011;62686;48.984;8.394;2023-09-07T09:53:45;1.60;;;1.50;;
38865;SDS011;62686;48.984;8.394;2023-09-07T09:56:15;1.45;;;1.35;;
38865;SDS011;62686;48.984;8.394;2023-09-07T09:58:46;1.92;;;1.73;;
38865;SDS011;62686;48.984;8.394;2023-09-07T10:01:16;1.77;;;1.67;;
38865;SDS011;62686;48.984;8.394;2023-09-07T10:03:45;1.88;;;1.73;;
38865;SDS011;62686;48.984;8.394;2023-09-07T10:06:18;1.80;;;1.50;;
38865;SDS011;62686;48.984;8.394;2023-09-07T10:08:58;1.88;;;1.70;;
38865;SDS011;62686;48.984;8.394;2023-09-07T10:11:30;2.20;;;2.00;;
38865;SDS011;62686;48.984;8.394;2023-09-07T10:14:00;2.20;;;2.00;;
38865;SDS011;62686;48.984;8.394;2023-09-07T10:16:41;1.60;;;1.50;;
38865;SDS011;62686;48.984;8.394;2023-09-07T10:19:13;1.70;;;1.60;;
38865;SDS011;62686;48.984;8.394;2023-09-07T10:21:42;1.80;;;1.70;;
38865;SDS011;62686;48.984;8.394;2023-09-07T10:24:11;2.15;;;1.95;;
38865;SDS011;62686;48.984;8.394;2023-09-07T10:26:39;2.28;;;2.08;;
38865;SDS011;62686;48.984;8.394;2023-09-07T10:29:08;2.00;;;1.80;;
38865;SDS011;62686;48.984;8.394;2023-09-07T10:31:37;2.20;;;1.88;;
38865;SDS011;62686;48.984;8.394;2023-09-07T10:34:15;3.30;;;1.70;;
38865;SDS011;62686;48.984;8.394;2023-09-07T10:36:45;2.60;;;2.10;;
38865;SDS011;62686;48.984;8.394;2023-09-07T10:39:33;2.10;;;1.90;;
38865;SDS011;62686;48.984;8.394;2023-09-07T10:42:03;1.90;;;1.80;;
38865;SDS011;62686;48.984;8.394;2023-09-07T10:45:08;2.30;;;2.10;;
38865;SDS011;62686;48.984;8.394;2023-09-07T10:47:42;1.88;;;1.77;;
38865;SDS011;62686;48.984;8.394;2023-09-07T10:50:16;1.85;;;1.70;;
38865;SDS011;62686;48.984;8.394;2023-09-07T10:52:45;2.25;;;2.05;;
38865;SDS011;62686;48.984;8.394;2023-09-07T10:55:13;2.70;;;2.05;;
38865;SDS011;62686;48.984;8.394;2023-09-07T10:57:41;1.90;;;1.80;;
38865;SDS011;62686;48.984;8.394;2023-09-07T11:00:11;2.15;;;1.80;;
38865;SDS011;62686;48.984;8.394;2023-09-07T11:02:41;2.03;;;1.77;;
38865;SDS011;62686;48.984;8.394;2023-09-07T11:05:10;2.10;;;1.90;;
38865;SDS011;62686;48.984;8.394;2023-09-07T11:07:40;2.10;;;1.90;;
38865;SDS011;62686;48.984;8.394;2023-09-07T11:10:10;1.80;;;1.70;;
38865;SDS011;62686;48.984;8.394;2023-09-07T11:12:38;2.22;;;1.75;;
38865;SDS011;62686;48.984;8.394;2023-09-07T11:15:09;2.00;;;1.80;;
38865;SDS011;62686;48.984;8.394;2023-09-07T11:17:39;1.98;;;1.75;;
38865;SDS011;62686;48.984;8.394;2023-09-07T11:20:07;2.10;;;1.90;;
38865;SDS011;62686;48.984;8.394;2023-09-07T11:22:36;2.20;;;2.00;;
38865;SDS011;62686;48.984;8.394;2023-09-07T11:25:16;1.83;;;1.70;;
38865;SDS011;62686;48.984;8.394;2023-09-07T11:27:44;2.17;;;1.98;;
38865;SDS011;62686;48.984;8.394;2023-09-07T11:30:13;2.03;;;1.83;;
38865;SDS011;62686;48.984;8.394;2023-09-07T11:32:41;1.65;;;1.52;;
38865;SDS011;62686;48.984;8.394;2023-09-07T11:35:09;1.70;;;1.60;;
38865;SDS011;62686;48.984;8.394;2023-09-07T11:37:37;1.45;;;1.35;;
38865;SDS011;62686;48.984;8.394;2023-09-07T11:40:07;2.15;;;1.88;;
38865;SDS011;62686;48.984;8.394;2023-09-07T11:42:43;2.13;;;1.92;;
38865;SDS011;62686;48.984;8.394;2023-09-07T11:45:11;1.50;;;1.40;;
38865;SDS011;62686;48.984;8.394;2023-09-07T11:47:42;3.38;;;1.98;;
38865;SDS011;62686;48.984;8.394;2023-09-07T11:50:10;2.15;;;1.80;;
38865;SDS011;62686;48.984;8.394;2023-09-07T11:52:39;2.05;;;1.85;;
38865;SDS011;62686;48.984;8.394;2023-09-07T11:55:07;2.75;;;1.88;;
38865;SDS011;62686;48.984;8.394;2023-09-07T11:57:36;1.80;;;1.55;;
38865;SDS011;62686;48.984;8.394;2023-09-07T12:00:06;1.95;;;1.75;;
38865;SDS011;62686;48.984;8.394;2023-09-07T12:02:38;1.95;;;1.75;;
38865;SDS011;62686;48.984;8.394;2023-09-07T12:05:07;1.80;;;1.70;;
38865;SDS011;62686;48.984;8.394;2023-09-07T12:07:35;1.60;;;1.50;;
38865;SDS011;62686;48.984;8.394;2023-09-07T12:10:04;1.98;;;1.80;;
38865;SDS011;62686;48.984;8.394;2023-09-07T12:12:36;2.67;;;1.60;;
38865;SDS011;62686;48.984;8.394;2023-09-07T12:15:06;2.03;;;1.73;;
38865;SDS011;62686;48.984;8.394;2023-09-07T12:17:35;1.83;;;1.73;;
38865;SDS011;62686;48.984;8.394;2023-09-07T12:20:04;1.73;;;1.63;;
38865;SDS011;62686;48.984;8.394;2023-09-07T12:22:36;2.17;;;1.70;;
38865;SDS011;62686;48.984;8.394;2023-09-07T12:25:04;2.00;;;1.80;;
38865;SDS011;62686;48.984;8.394;2023-09-07T12:27:38;2.10;;;1.88;;
38865;SDS011;62686;48.984;8.394;2023-09-07T12:30:20;1.75;;;1.65;;
38865;SDS011;62686;48.984;8.394;2023-09-07T12:32:50;2.15;;;1.95;;
38865;SDS011;62686;48.984;8.394;2023-09-07T12:35:21;2.13;;;1.83;;
38865;SDS011;62686;48.984;8.394;2023-09-07T12:37:50;1.80;;;1.67;;
38865;SDS011;62686;48.984;8.394;2023-09-07T12:40:18;2.22;;;1.88;;
38865;SDS011;62686;48.984;8.394;2023-09-07T12:42:47;1.98;;;1.77;;
38865;SDS011;62686;48.984;8.394;2023-09-07T12:45:15;2.55;;;2.10;;
38865;SDS011;62686;48.984;8.394;2023-09-07T12:47:44;1.60;;;1.50;;
38865;SDS011;62686;48.984;8.394;2023-09-07T12:50:12;1.92;;;1.83;;
38865;SDS011;62686;48.984;8.394;2023-09-07T12:52:41;3.88;;;1.85;;
38865;SDS011;62686;48.984;8.394;2023-09-07T12:55:09;1.65;;;1.55;;
38865;SDS011;62686;48.984;8.394;2023-09-07T12:57:37;1.70;;;1.60;;
38865;SDS011;62686;48.984;8.394;2023-09-07T13:00:07;1.52;;;1.42;;
38865;SDS011;62686;48.984;8.394;2023-09-07T13:02:37;1.60;;;1.50;;
38865;SDS011;62686;48.984;8.394;2023-09-07T13:05:07;2.17;;;1.70;;
38865;SDS011;62686;48.984;8.394;2023-09-07T13:07:35;2.00;;;1.80;;
38865;SDS011;62686;48.984;8.394;2023-09-07T13:10:04;2.17;;;1.50;;
38865;SDS011;62686;48.984;8.394;2023-09-07T13:12:33;1.55;;;1.45;;
38865;SDS011;62686;48.984;8.394;2023-09-07T13:15:01;1.80;;;1.55;;
38865;SDS011;62686;48.984;8.394;2023-09-07T13:17:29;1.42;;;1.33;;
38865;SDS011;62686;48.984;8.394;2023-09-07T13:19:58;1.75;;;1.60;;
38865;SDS011;62686;48.984;8.394;2023-09-07T13:22:28;1.52;;;1.30;;
38865;SDS011;62686;48.984;8.394;2023-09-07T13:24:56;1.48;;;1.38;;
38865;SDS011;62686;48.984;8.394;2023-09-07T13:27:24;1.55;;;1.45;;
38865;SDS011;62686;48.984;8.394;2023-09-07T13:29:52;1.65;;;1.55;;
38865;SDS011;62686;48.984;8.394;2023-09-07T13:32:21;1.80;;;1.50;;
38865;SDS011;62686;48.984;8.394;2023-09-07T13:34:49;1.58;;;1.48;;
38865;SDS011;62686;48.984;8.394;2023-09-07T13:37:17;1.50;;;1.40;;
38865;SDS011;62686;48.984;8.394;2023-09-07T13:39:47;1.60;;;1.20;;
38865;SDS011;62686;48.984;8.394;2023-09-07T13:42:16;1.63;;;1.52;;
38865;SDS011;62686;48.984;8.394;2023-09-07T13:44:44;1.65;;;1.55;;
38865;SDS011;62686;48.984;8.394;2023-09-07T13:47:13;1.50;;;1.40;;
38865;SDS011;62686;48.984;8.394;2023-09-07T13:49:42;1.40;;;1.20;;
38865;SDS011;62686;48.984;8.394;2023-09-07T13:52:10;1.58;;;1.35;;
38865;SDS011;62686;48.984;8.394;2023-09-07T13:54:40;2.05;;;1.40;;
38865;SDS011;62686;48.984;8.394;2023-09-07T13:57:10;1.50;;;1.40;;
38865;SDS011;62686;48.984;8.394;2023-09-07T13:59:38;1.40;;;1.30;;
38865;SDS011;62686;48.984;8.394;2023-09-07T14:02:06;2.10;;;1.52;;
38865;SDS011;62686;48.984;8.394;2023-09-07T14:04:34;4.78;;;1.60;;
38865;SDS011;62686;48.984;8.394;2023-09-07T14:07:02;1.60;;;1.50;;
38865;SDS011;62686;48.984;8.394;2023-09-07T14:09:31;1.73;;;1.40;;
38865;SDS011;62686;48.984;8.394;2023-09-07T14:11:59;1.48;;;1.38;;
38865;SDS011;62686;48.984;8.394;2023-09-07T14:14:29;1.50;;;1.38;;
38865;SDS011;62686;48.984;8.394;2023-09-07T14:16:58;4.03;;;1.35;;
38865;SDS011;62686;48.984;8.394;2023-09-07T14:19:26;1.88;;;1.67;;
38865;SDS011;62686;48.984;8.394;2023-09-07T14:21:57;2.05;;;1.65;;
38865;SDS011;62686;48.984;8.394;2023-09-07T14:24:26;1.55;;;1.42;;
38865;SDS011;62686;48.984;8.394;2023-09-07T14:26:54;1.50;;;1.40;;
38865;SDS011;62686;48.984;8.394;2023-09-07T14:29:22;1.50;;;1.40;;
38865;SDS011;62686;48.984;8.394;2023-09-07T14:31:52;1.38;;;1.27;;
38865;SDS011;62686;48.984;8.394;2023-09-07T14:34:20;1.55;;;1.45;;
38865;SDS011;62686;48.984;8.394;2023-09-07T14:36:48;1.40;;;1.30;;
38865;SDS011;62686;48.984;8.394;2023-09-07T14:39:17;1.52;;;1.42;;
38865;SDS011;62686;48.984;8.394;2023-09-07T14:41:50;1.65;;;1.50;;
38865;SDS011;62686;48.984;8.394;2023-09-07T14:44:19;1.48;;;1.38;;
38865;SDS011;62686;48.984;8.394;2023-09-07T14:46:47;1.52;;;1.17;;
38865;SDS011;62686;48.984;8.394;2023-09-07T14:49:19;1.40;;;1.30;;
38865;SDS011;62686;48.984;8.394;2023-09-07T14:51:47;1.50;;;1.40;;
38865;SDS011;62686;48.984;8.394;2023-09-07T14:54:15;1.70;;;1.60;;
38865;SDS011;62686;48.984;8.394;2023-09-07T14:56:44;1.70;;;1.60;;
38865;SDS011;62686;48.984;8.394;2023-09-07T14:59:12;2.20;;;1.52;;
38865;SDS011;62686;48.984;8.394;2023-09-07T15:01:40;1.40;;;1.30;;
38865;SDS011;62686;48.984;8.394;2023-09-07T15:04:09;1.85;;;1.75;;
38865;SDS011;62686;48.984;8.394;2023-09-07T15:06:39;1.63;;;1.52;;
38865;SDS011;62686;48.984;8.394;2023-09-07T15:09:07;2.33;;;1.90;;